sensor_id;sensor_type;location;lat;lon;timestamp;P1;durP1;ratioP1;P2;durP2;ratioP2
26253;SDS011;53339;51.378;0.094;2022-11-13T00:01:55;30.92;;;14.45;;
26253;SDS011;53339;51.378;0.094;2022-11-13T00:04:41;25.25;;;13.40;;
26253;SDS011;53339;51.378;0.094;2022-11-13T00:07:27;28.73;;;12.80;;
26253;SDS011;53339;51.378;0.094;2022-11-13T00:10:13;29.20;;;13.75;;
26253;SDS011;53339;51.378;0.094;2022-11-13T00:12:59;29.67;;;13.25;;
26253;SDS011;53339;51.378;0.094;2022-11-13T00:15:54;29.10;;;13.05;;
26253;SDS011;53339;51.378;0.094;2022-11-13T00:18:48;30.10;;;13.93;;
26253;SDS011;53339;51.378;0.094;2022-11-13T00:21:34;31.70;;;13.60;;
26253;SDS011;53339;51.378;0.094;2022-11-13T00:24:21;28.52;;;14.25;;
26253;SDS011;53339;51.378;0.094;2022-11-13T00:27:07;30.17;;;13.00;;
26253;SDS011;53339;51.378;0.094;2022-11-13T00:29:53;33.70;;;14.05;;
26253;SDS011;53339;51.378;0.094;2022-11-13T00:32:39;32.60;;;14.27;;
26253;SDS011;53339;51.378;0.094;2022-11-13T00:35:25;31.63;;;14.05;;
26253;SDS011;53339;51.378;0.094;2022-11-13T00:38:11;32.33;;;14.70;;
26253;SDS011;53339;51.378;0.094;2022-11-13T00:40:57;31.75;;;14.15;;
26253;SDS011;53339;51.378;0.094;2022-11-13T00:43:44;29.70;;;13.93;;
26253;SDS011;53339;51.378;0.094;2022-11-13T00:46:30;31.70;;;12.93;;
26253;SDS011;53339;51.378;0.094;2022-11-13T00:49:16;30.85;;;13.10;;
26253;SDS011;53339;51.378;0.094;2022-11-13T00:52:02;28.80;;;13.52;;
26253;SDS011;53339;51.378;0.094;2022-11-13T00:54:48;28.98;;;14.18;;
26253;SDS011;53339;51.378;0.094;2022-11-13T00:57:34;28.58;;;11.02;;
26253;SDS011;53339;51.378;0.094;2022-11-13T01:00:20;30.67;;;13.85;;
26253;SDS011;53339;51.378;0.094;2022-11-13T01:03:07;29.60;;;12.70;;
26253;SDS011;53339;51.378;0.094;2022-11-13T01:05:53;29.50;;;12.98;;
26253;SDS011;53339;51.378;0.094;2022-11-13T01:08:39;28.85;;;13.20;;
26253;SDS011;53339;51.378;0.094;2022-11-13T01:11:26;28.00;;;10.18;;
26253;SDS011;53339;51.378;0.094;2022-11-13T01:14:14;31.17;;;11.38;;
26253;SDS011;53339;51.378;0.094;2022-11-13T01:17:00;30.00;;;12.45;;
26253;SDS011;53339;51.378;0.094;2022-11-13T01:19:46;28.58;;;11.98;;
26253;SDS011;53339;51.378;0.094;2022-11-13T01:22:32;30.25;;;13.15;;
26253;SDS011;53339;51.378;0.094;2022-11-13T01:25:18;29.75;;;12.23;;
26253;SDS011;53339;51.378;0.094;2022-11-13T01:28:05;29.20;;;12.68;;
26253;SDS011;53339;51.378;0.094;2022-11-13T01:30:51;34.55;;;13.43;;
26253;SDS011;53339;51.378;0.094;2022-11-13T01:33:36;28.48;;;12.02;;
26253;SDS011;53339;51.378;0.094;2022-11-13T01:36:23;24.02;;;11.23;;
26253;SDS011;53339;51.378;0.094;2022-11-13T01:39:12;25.30;;;12.00;;
26253;SDS011;53339;51.378;0.094;2022-11-13T01:41:59;25.50;;;9.60;;
26253;SDS011;53339;51.378;0.094;2022-11-13T01:47:38;25.33;;;10.02;;
26253;SDS011;53339;51.378;0.094;2022-11-13T01:50:24;26.33;;;11.32;;
26253;SDS011;53339;51.378;0.094;2022-11-13T01:53:11;25.38;;;9.23;;
26253;SDS011;53339;51.378;0.094;2022-11-13T01:55:57;25.65;;;8.68;;
26253;SDS011;53339;51.378;0.094;2022-11-13T01:58:45;23.33;;;11.00;;
26253;SDS011;53339;51.378;0.094;2022-11-13T02:01:38;28.38;;;14.32;;
26253;SDS011;53339;51.378;0.094;2022-11-13T02:04:24;25.48;;;11.10;;
26253;SDS011;53339;51.378;0.094;2022-11-13T02:07:14;27.27;;;12.75;;
26253;SDS011;53339;51.378;0.094;2022-11-13T02:10:03;23.05;;;9.32;;
26253;SDS011;53339;51.378;0.094;2022-11-13T02:12:50;24.88;;;10.95;;
26253;SDS011;53339;51.378;0.094;2022-11-13T02:15:37;26.00;;;11.63;;
26253;SDS011;53339;51.378;0.094;2022-11-13T02:18:24;24.83;;;11.05;;
26253;SDS011;53339;51.378;0.094;2022-11-13T02:24:28;24.95;;;9.75;;
26253;SDS011;53339;51.378;0.094;2022-11-13T02:27:35;24.02;;;10.70;;
26253;SDS011;53339;51.378;0.094;2022-11-13T02:30:28;24.98;;;11.43;;
26253;SDS011;53339;51.378;0.094;2022-11-13T02:36:11;21.80;;;10.38;;
26253;SDS011;53339;51.378;0.094;2022-11-13T02:39:00;22.27;;;11.27;;
26253;SDS011;53339;51.378;0.094;2022-11-13T02:41:49;26.50;;;10.77;;
26253;SDS011;53339;51.378;0.094;2022-11-13T02:44:35;21.98;;;12.02;;
26253;SDS011;53339;51.378;0.094;2022-11-13T02:47:21;19.58;;;10.13;;
26253;SDS011;53339;51.378;0.094;2022-11-13T02:50:07;24.92;;;10.43;;
26253;SDS011;53339;51.378;0.094;2022-11-13T02:52:54;23.40;;;10.60;;
26253;SDS011;53339;51.378;0.094;2022-11-13T02:55:40;21.83;;;10.40;;
26253;SDS011;53339;51.378;0.094;2022-11-13T02:58:26;19.05;;;10.05;;
26253;SDS011;53339;51.378;0.094;2022-11-13T03:01:13;26.20;;;11.30;;
26253;SDS011;53339;51.378;0.094;2022-11-13T03:03:59;23.00;;;9.38;;
26253;SDS011;53339;51.378;0.094;2022-11-13T03:06:45;24.98;;;11.32;;
26253;SDS011;53339;51.378;0.094;2022-11-13T03:09:31;22.83;;;10.52;;
26253;SDS011;53339;51.378;0.094;2022-11-13T03:12:17;23.88;;;10.43;;
26253;SDS011;53339;51.378;0.094;2022-11-13T03:15:04;23.33;;;10.45;;
26253;SDS011;53339;51.378;0.094;2022-11-13T03:17:51;26.27;;;11.02;;
26253;SDS011;53339;51.378;0.094;2022-11-13T03:20:37;26.25;;;8.02;;
26253;SDS011;53339;51.378;0.094;2022-11-13T03:23:25;25.05;;;10.93;;
26253;SDS011;53339;51.378;0.094;2022-11-13T03:26:13;19.35;;;7.53;;
26253;SDS011;53339;51.378;0.094;2022-11-13T03:29:00;27.02;;;11.10;;
26253;SDS011;53339;51.378;0.094;2022-11-13T03:31:46;25.67;;;11.38;;
26253;SDS011;53339;51.378;0.094;2022-11-13T03:34:32;30.35;;;12.52;;
26253;SDS011;53339;51.378;0.094;2022-11-13T03:37:18;26.25;;;10.93;;
26253;SDS011;53339;51.378;0.094;2022-11-13T03:40:05;26.77;;;10.85;;
26253;SDS011;53339;51.378;0.094;2022-11-13T03:42:51;26.02;;;11.40;;
26253;SDS011;53339;51.378;0.094;2022-11-13T03:45:38;24.77;;;10.45;;
26253;SDS011;53339;51.378;0.094;2022-11-13T03:48:24;26.67;;;11.10;;
26253;SDS011;53339;51.378;0.094;2022-11-13T03:51:10;24.00;;;10.48;;
26253;SDS011;53339;51.378;0.094;2022-11-13T03:53:57;24.63;;;10.00;;
26253;SDS011;53339;51.378;0.094;2022-11-13T03:56:44;27.10;;;11.02;;
26253;SDS011;53339;51.378;0.094;2022-11-13T03:59:31;22.80;;;9.57;;
26253;SDS011;53339;51.378;0.094;2022-11-13T04:02:17;25.83;;;9.93;;
26253;SDS011;53339;51.378;0.094;2022-11-13T04:05:03;22.85;;;9.70;;
26253;SDS011;53339;51.378;0.094;2022-11-13T04:07:49;26.63;;;10.95;;
26253;SDS011;53339;51.378;0.094;2022-11-13T04:10:35;23.75;;;9.20;;
26253;SDS011;53339;51.378;0.094;2022-11-13T04:13:22;22.52;;;10.18;;
26253;SDS011;53339;51.378;0.094;2022-11-13T04:16:08;22.48;;;8.38;;
26253;SDS011;53339;51.378;0.094;2022-11-13T04:18:54;20.10;;;9.05;;
26253;SDS011;53339;51.378;0.094;2022-11-13T04:21:40;21.85;;;10.68;;
26253;SDS011;53339;51.378;0.094;2022-11-13T04:24:26;22.10;;;9.68;;
26253;SDS011;53339;51.378;0.094;2022-11-13T04:27:12;26.52;;;11.05;;
26253;SDS011;53339;51.378;0.094;2022-11-13T04:29:58;23.88;;;10.82;;
26253;SDS011;53339;51.378;0.094;2022-11-13T04:32:44;25.92;;;11.35;;
26253;SDS011;53339;51.378;0.094;2022-11-13T04:35:31;23.17;;;10.45;;
26253;SDS011;53339;51.378;0.094;2022-11-13T04:38:17;27.13;;;11.02;;
26253;SDS011;53339;51.378;0.094;2022-11-13T04:41:03;23.38;;;11.25;;
26253;SDS011;53339;51.378;0.094;2022-11-13T04:44:08;25.50;;;10.77;;
26253;SDS011;53339;51.378;0.094;2022-11-13T04:46:54;23.60;;;7.93;;
26253;SDS011;53339;51.378;0.094;2022-11-13T04:49:40;23.08;;;9.93;;
26253;SDS011;53339;51.378;0.094;2022-11-13T04:52:26;21.67;;;10.38;;
26253;SDS011;53339;51.378;0.094;2022-11-13T04:55:13;23.27;;;11.15;;
26253;SDS011;53339;51.378;0.094;2022-11-13T04:57:59;24.95;;;11.98;;
26253;SDS011;53339;51.378;0.094;2022-11-13T05:00:45;21.88;;;11.00;;
26253;SDS011;53339;51.378;0.094;2022-11-13T05:03:31;22.08;;;8.35;;
26253;SDS011;53339;51.378;0.094;2022-11-13T05:06:17;20.63;;;7.75;;
26253;SDS011;53339;51.378;0.094;2022-11-13T05:09:03;24.85;;;10.70;;
26253;SDS011;53339;51.378;0.094;2022-11-13T05:11:49;24.08;;;10.75;;
26253;SDS011;53339;51.378;0.094;2022-11-13T05:14:36;21.08;;;9.13;;
26253;SDS011;53339;51.378;0.094;2022-11-13T05:17:22;22.60;;;11.45;;
26253;SDS011;53339;51.378;0.094;2022-11-13T05:20:09;26.23;;;7.20;;
26253;SDS011;53339;51.378;0.094;2022-11-13T05:22:55;24.80;;;8.82;;
26253;SDS011;53339;51.378;0.094;2022-11-13T05:25:41;25.77;;;10.38;;
26253;SDS011;53339;51.378;0.094;2022-11-13T05:28:27;29.48;;;9.57;;
26253;SDS011;53339;51.378;0.094;2022-11-13T05:31:14;18.60;;;7.43;;
26253;SDS011;53339;51.378;0.094;2022-11-13T05:34:04;21.33;;;8.82;;
26253;SDS011;53339;51.378;0.094;2022-11-13T05:36:51;20.25;;;9.85;;
26253;SDS011;53339;51.378;0.094;2022-11-13T05:39:37;19.75;;;10.02;;
26253;SDS011;53339;51.378;0.094;2022-11-13T05:42:23;20.90;;;9.10;;
26253;SDS011;53339;51.378;0.094;2022-11-13T05:45:09;26.50;;;9.52;;
26253;SDS011;53339;51.378;0.094;2022-11-13T05:47:56;23.95;;;9.45;;
26253;SDS011;53339;51.378;0.094;2022-11-13T05:50:42;22.83;;;8.82;;
26253;SDS011;53339;51.378;0.094;2022-11-13T05:53:28;27.45;;;8.75;;
26253;SDS011;53339;51.378;0.094;2022-11-13T05:59:02;20.85;;;8.40;;
26253;SDS011;53339;51.378;0.094;2022-11-13T06:01:49;22.50;;;8.68;;
26253;SDS011;53339;51.378;0.094;2022-11-13T06:04:36;29.25;;;10.05;;
26253;SDS011;53339;51.378;0.094;2022-11-13T06:07:22;23.35;;;7.97;;
26253;SDS011;53339;51.378;0.094;2022-11-13T06:10:08;19.40;;;6.72;;
26253;SDS011;53339;51.378;0.094;2022-11-13T06:12:54;22.58;;;11.35;;
26253;SDS011;53339;51.378;0.094;2022-11-13T06:15:40;15.40;;;5.97;;
26253;SDS011;53339;51.378;0.094;2022-11-13T06:18:27;16.23;;;7.18;;
26253;SDS011;53339;51.378;0.094;2022-11-13T06:21:15;20.10;;;8.13;;
26253;SDS011;53339;51.378;0.094;2022-11-13T06:24:03;20.52;;;7.45;;
26253;SDS011;53339;51.378;0.094;2022-11-13T06:26:49;24.40;;;7.50;;
26253;SDS011;53339;51.378;0.094;2022-11-13T06:29:35;35.83;;;7.13;;
26253;SDS011;53339;51.378;0.094;2022-11-13T06:32:21;27.80;;;7.70;;
26253;SDS011;53339;51.378;0.094;2022-11-13T06:35:08;16.58;;;8.48;;
26253;SDS011;53339;51.378;0.094;2022-11-13T06:37:54;21.85;;;8.07;;
26253;SDS011;53339;51.378;0.094;2022-11-13T06:40:40;34.88;;;8.27;;
26253;SDS011;53339;51.378;0.094;2022-11-13T06:43:26;24.15;;;5.45;;
26253;SDS011;53339;51.378;0.094;2022-11-13T06:46:14;22.08;;;7.47;;
26253;SDS011;53339;51.378;0.094;2022-11-13T06:49:02;20.90;;;8.40;;
26253;SDS011;53339;51.378;0.094;2022-11-13T06:51:48;14.00;;;6.35;;
26253;SDS011;53339;51.378;0.094;2022-11-13T06:54:34;15.27;;;7.63;;
26253;SDS011;53339;51.378;0.094;2022-11-13T06:57:21;23.15;;;7.95;;
26253;SDS011;53339;51.378;0.094;2022-11-13T07:00:07;20.45;;;8.00;;
26253;SDS011;53339;51.378;0.094;2022-11-13T07:02:54;15.05;;;7.00;;
26253;SDS011;53339;51.378;0.094;2022-11-13T07:05:40;16.92;;;7.70;;
26253;SDS011;53339;51.378;0.094;2022-11-13T07:08:26;20.80;;;7.80;;
26253;SDS011;53339;51.378;0.094;2022-11-13T07:11:15;19.25;;;8.07;;
26253;SDS011;53339;51.378;0.094;2022-11-13T07:14:02;23.45;;;7.65;;
26253;SDS011;53339;51.378;0.094;2022-11-13T07:16:48;23.75;;;7.35;;
26253;SDS011;53339;51.378;0.094;2022-11-13T07:19:53;15.18;;;7.63;;
26253;SDS011;53339;51.378;0.094;2022-11-13T07:22:39;13.18;;;6.55;;
26253;SDS011;53339;51.378;0.094;2022-11-13T07:25:26;15.45;;;7.88;;
26253;SDS011;53339;51.378;0.094;2022-11-13T07:28:13;18.13;;;6.25;;
26253;SDS011;53339;51.378;0.094;2022-11-13T07:30:59;20.65;;;6.15;;
26253;SDS011;53339;51.378;0.094;2022-11-13T07:33:46;14.25;;;7.25;;
26253;SDS011;53339;51.378;0.094;2022-11-13T07:36:33;24.98;;;8.45;;
26253;SDS011;53339;51.378;0.094;2022-11-13T07:39:19;31.08;;;7.10;;
26253;SDS011;53339;51.378;0.094;2022-11-13T07:42:05;12.93;;;5.97;;
26253;SDS011;53339;51.378;0.094;2022-11-13T07:44:52;15.90;;;6.95;;
26253;SDS011;53339;51.378;0.094;2022-11-13T07:47:39;16.38;;;5.00;;
26253;SDS011;53339;51.378;0.094;2022-11-13T07:50:26;15.95;;;6.68;;
26253;SDS011;53339;51.378;0.094;2022-11-13T07:53:14;15.68;;;6.60;;
26253;SDS011;53339;51.378;0.094;2022-11-13T07:56:01;23.90;;;6.97;;
26253;SDS011;53339;51.378;0.094;2022-11-13T07:58:49;15.82;;;7.20;;
26253;SDS011;53339;51.378;0.094;2022-11-13T08:01:35;21.60;;;7.10;;
26253;SDS011;53339;51.378;0.094;2022-11-13T08:04:23;20.15;;;10.18;;
26253;SDS011;53339;51.378;0.094;2022-11-13T08:07:12;21.73;;;7.93;;
26253;SDS011;53339;51.378;0.094;2022-11-13T08:09:58;19.85;;;7.75;;
26253;SDS011;53339;51.378;0.094;2022-11-13T08:12:45;19.75;;;7.45;;
26253;SDS011;53339;51.378;0.094;2022-11-13T08:15:32;15.02;;;6.80;;
26253;SDS011;53339;51.378;0.094;2022-11-13T08:18:19;13.85;;;6.72;;
26253;SDS011;53339;51.378;0.094;2022-11-13T08:21:05;13.48;;;6.47;;
26253;SDS011;53339;51.378;0.094;2022-11-13T08:23:56;16.67;;;7.05;;
26253;SDS011;53339;51.378;0.094;2022-11-13T08:26:42;20.15;;;7.32;;
26253;SDS011;53339;51.378;0.094;2022-11-13T08:29:28;22.15;;;5.28;;
26253;SDS011;53339;51.378;0.094;2022-11-13T08:32:14;16.23;;;7.18;;
26253;SDS011;53339;51.378;0.094;2022-11-13T08:35:01;15.75;;;6.65;;
26253;SDS011;53339;51.378;0.094;2022-11-13T08:37:47;28.38;;;7.57;;
26253;SDS011;53339;51.378;0.094;2022-11-13T08:40:34;10.82;;;7.40;;
26253;SDS011;53339;51.378;0.094;2022-11-13T08:43:21;15.63;;;7.90;;
26253;SDS011;53339;51.378;0.094;2022-11-13T08:46:07;25.52;;;8.10;;
26253;SDS011;53339;51.378;0.094;2022-11-13T08:48:52;18.63;;;5.93;;
26253;SDS011;53339;51.378;0.094;2022-11-13T08:51:38;19.45;;;7.63;;
26253;SDS011;53339;51.378;0.094;2022-11-13T08:54:24;16.98;;;7.60;;
26253;SDS011;53339;51.378;0.094;2022-11-13T08:57:10;14.18;;;6.15;;
26253;SDS011;53339;51.378;0.094;2022-11-13T08:59:57;21.10;;;6.60;;
26253;SDS011;53339;51.378;0.094;2022-11-13T09:02:43;15.93;;;8.50;;
26253;SDS011;53339;51.378;0.094;2022-11-13T09:05:29;14.23;;;7.22;;
26253;SDS011;53339;51.378;0.094;2022-11-13T09:08:16;11.25;;;5.15;;
26253;SDS011;53339;51.378;0.094;2022-11-13T09:11:03;13.07;;;7.55;;
26253;SDS011;53339;51.378;0.094;2022-11-13T09:13:49;12.88;;;6.55;;
26253;SDS011;53339;51.378;0.094;2022-11-13T09:16:37;18.77;;;6.40;;
26253;SDS011;53339;51.378;0.094;2022-11-13T09:19:23;14.32;;;6.97;;
26253;SDS011;53339;51.378;0.094;2022-11-13T09:22:10;13.05;;;7.15;;
26253;SDS011;53339;51.378;0.094;2022-11-13T09:24:56;11.52;;;7.65;;
26253;SDS011;53339;51.378;0.094;2022-11-13T09:27:42;12.35;;;5.38;;
26253;SDS011;53339;51.378;0.094;2022-11-13T09:30:36;12.60;;;6.97;;
26253;SDS011;53339;51.378;0.094;2022-11-13T09:33:24;12.55;;;7.63;;
26253;SDS011;53339;51.378;0.094;2022-11-13T09:36:13;13.38;;;6.57;;
26253;SDS011;53339;51.378;0.094;2022-11-13T09:39:00;13.10;;;7.28;;
26253;SDS011;53339;51.378;0.094;2022-11-13T09:41:48;13.38;;;4.95;;
26253;SDS011;53339;51.378;0.094;2022-11-13T09:47:29;14.77;;;6.93;;
26253;SDS011;53339;51.378;0.094;2022-11-13T09:50:22;12.35;;;6.78;;
26253;SDS011;53339;51.378;0.094;2022-11-13T09:53:10;10.43;;;6.03;;
26253;SDS011;53339;51.378;0.094;2022-11-13T10:07:52;11.60;;;6.68;;
26253;SDS011;53339;51.378;0.094;2022-11-13T10:11:12;12.75;;;6.10;;
26253;SDS011;53339;51.378;0.094;2022-11-13T10:14:42;11.82;;;6.75;;
26253;SDS011;53339;51.378;0.094;2022-11-13T10:17:32;12.20;;;6.95;;
26253;SDS011;53339;51.378;0.094;2022-11-13T10:20:28;16.42;;;6.63;;
26253;SDS011;53339;51.378;0.094;2022-11-13T10:23:33;11.50;;;8.45;;
26253;SDS011;53339;51.378;0.094;2022-11-13T10:26:23;10.68;;;6.13;;
26253;SDS011;53339;51.378;0.094;2022-11-13T10:29:12;12.10;;;7.65;;
26253;SDS011;53339;51.378;0.094;2022-11-13T10:32:12;11.15;;;7.20;;
26253;SDS011;53339;51.378;0.094;2022-11-13T10:38:05;11.10;;;6.20;;
26253;SDS011;53339;51.378;0.094;2022-11-13T10:41:06;10.50;;;6.43;;
26253;SDS011;53339;51.378;0.094;2022-11-13T10:44:06;12.52;;;7.28;;
26253;SDS011;53339;51.378;0.094;2022-11-13T10:47:16;10.70;;;6.28;;
26253;SDS011;53339;51.378;0.094;2022-11-13T10:50:22;10.70;;;6.05;;
26253;SDS011;53339;51.378;0.094;2022-11-13T10:53:14;10.40;;;7.13;;
26253;SDS011;53339;51.378;0.094;2022-11-13T10:56:09;10.93;;;6.78;;
26253;SDS011;53339;51.378;0.094;2022-11-13T10:59:08;11.70;;;7.65;;
26253;SDS011;53339;51.378;0.094;2022-11-13T11:02:16;10.15;;;6.97;;
26253;SDS011;53339;51.378;0.094;2022-11-13T11:05:05;11.15;;;6.90;;
26253;SDS011;53339;51.378;0.094;2022-11-13T11:08:04;10.52;;;7.25;;
26253;SDS011;53339;51.378;0.094;2022-11-13T11:10:56;10.80;;;6.43;;
26253;SDS011;53339;51.378;0.094;2022-11-13T11:14:18;10.50;;;6.20;;
26253;SDS011;53339;51.378;0.094;2022-11-13T11:17:14;10.77;;;6.75;;
26253;SDS011;53339;51.378;0.094;2022-11-13T11:23:17;13.90;;;7.82;;
26253;SDS011;53339;51.378;0.094;2022-11-13T11:26:15;13.30;;;9.45;;
26253;SDS011;53339;51.378;0.094;2022-11-13T11:29:07;11.93;;;8.27;;
26253;SDS011;53339;51.378;0.094;2022-11-13T11:34:48;11.77;;;7.57;;
26253;SDS011;53339;51.378;0.094;2022-11-13T11:41:12;12.75;;;8.10;;
26253;SDS011;53339;51.378;0.094;2022-11-13T11:44:03;13.48;;;8.35;;
26253;SDS011;53339;51.378;0.094;2022-11-13T11:47:01;16.08;;;8.50;;
26253;SDS011;53339;51.378;0.094;2022-11-13T11:49:48;12.38;;;7.35;;
26253;SDS011;53339;51.378;0.094;2022-11-13T12:07:47;17.85;;;9.63;;
26253;SDS011;53339;51.378;0.094;2022-11-13T12:13:42;20.38;;;10.48;;
26253;SDS011;53339;51.378;0.094;2022-11-13T12:20:06;19.10;;;8.60;;
26253;SDS011;53339;51.378;0.094;2022-11-13T12:32:28;20.33;;;8.30;;
26253;SDS011;53339;51.378;0.094;2022-11-13T12:35:28;18.05;;;8.52;;
26253;SDS011;53339;51.378;0.094;2022-11-13T12:38:24;19.02;;;8.77;;
26253;SDS011;53339;51.378;0.094;2022-11-13T12:44:27;21.13;;;10.82;;
26253;SDS011;53339;51.378;0.094;2022-11-13T12:47:15;20.17;;;11.73;;
26253;SDS011;53339;51.378;0.094;2022-11-13T12:50:54;19.60;;;10.55;;
26253;SDS011;53339;51.378;0.094;2022-11-13T12:53:22;17.80;;;10.15;;
26253;SDS011;53339;51.378;0.094;2022-11-13T12:56:15;18.30;;;11.38;;
26253;SDS011;53339;51.378;0.094;2022-11-13T13:02:29;21.92;;;11.38;;
26253;SDS011;53339;51.378;0.094;2022-11-13T13:11:55;19.05;;;10.68;;
26253;SDS011;53339;51.378;0.094;2022-11-13T13:14:32;17.63;;;10.63;;
26253;SDS011;53339;51.378;0.094;2022-11-13T13:17:21;18.35;;;9.68;;
26253;SDS011;53339;51.378;0.094;2022-11-13T13:22:58;20.33;;;12.52;;
26253;SDS011;53339;51.378;0.094;2022-11-13T13:25:49;18.50;;;9.00;;
26253;SDS011;53339;51.378;0.094;2022-11-13T13:28:55;19.17;;;10.57;;
26253;SDS011;53339;51.378;0.094;2022-11-13T13:44:21;18.83;;;11.10;;
26253;SDS011;53339;51.378;0.094;2022-11-13T13:47:55;20.00;;;11.20;;
26253;SDS011;53339;51.378;0.094;2022-11-13T13:50:27;17.70;;;11.07;;
26253;SDS011;53339;51.378;0.094;2022-11-13T13:53:34;18.27;;;10.55;;
26253;SDS011;53339;51.378;0.094;2022-11-13T13:56:21;21.10;;;12.88;;
26253;SDS011;53339;51.378;0.094;2022-11-13T13:59:19;20.25;;;11.68;;
26253;SDS011;53339;51.378;0.094;2022-11-13T14:02:14;17.77;;;8.50;;
26253;SDS011;53339;51.378;0.094;2022-11-13T14:05:15;20.52;;;11.00;;
26253;SDS011;53339;51.378;0.094;2022-11-13T14:08:15;18.25;;;9.35;;
26253;SDS011;53339;51.378;0.094;2022-11-13T14:11:14;18.55;;;10.45;;
26253;SDS011;53339;51.378;0.094;2022-11-13T14:14:21;21.73;;;12.00;;
26253;SDS011;53339;51.378;0.094;2022-11-13T14:17:08;20.23;;;12.00;;
26253;SDS011;53339;51.378;0.094;2022-11-13T14:20:10;19.88;;;11.70;;
26253;SDS011;53339;51.378;0.094;2022-11-13T14:22:56;19.23;;;11.52;;
26253;SDS011;53339;51.378;0.094;2022-11-13T14:25:43;17.95;;;11.38;;
26253;SDS011;53339;51.378;0.094;2022-11-13T14:28:31;20.08;;;9.25;;
26253;SDS011;53339;51.378;0.094;2022-11-13T14:31:30;17.48;;;9.65;;
26253;SDS011;53339;51.378;0.094;2022-11-13T14:34:20;19.80;;;12.10;;
26253;SDS011;53339;51.378;0.094;2022-11-13T14:37:25;18.20;;;11.75;;
26253;SDS011;53339;51.378;0.094;2022-11-13T14:40:28;20.67;;;12.32;;
26253;SDS011;53339;51.378;0.094;2022-11-13T14:43:18;23.42;;;12.50;;
26253;SDS011;53339;51.378;0.094;2022-11-13T14:46:25;27.52;;;12.90;;
26253;SDS011;53339;51.378;0.094;2022-11-13T14:49:13;29.00;;;14.52;;
26253;SDS011;53339;51.378;0.094;2022-11-13T14:52:26;27.50;;;12.15;;
26253;SDS011;53339;51.378;0.094;2022-11-13T14:55:20;28.88;;;16.35;;
26253;SDS011;53339;51.378;0.094;2022-11-13T14:58:10;27.25;;;15.93;;
26253;SDS011;53339;51.378;0.094;2022-11-13T15:00:59;31.15;;;17.75;;
26253;SDS011;53339;51.378;0.094;2022-11-13T15:04:03;28.88;;;14.27;;
26253;SDS011;53339;51.378;0.094;2022-11-13T15:06:50;30.92;;;17.23;;
26253;SDS011;53339;51.378;0.094;2022-11-13T15:09:40;31.05;;;16.15;;
26253;SDS011;53339;51.378;0.094;2022-11-13T15:12:26;29.50;;;14.05;;
26253;SDS011;53339;51.378;0.094;2022-11-13T15:15:13;31.17;;;16.77;;
26253;SDS011;53339;51.378;0.094;2022-11-13T15:18:04;28.00;;;14.50;;
26253;SDS011;53339;51.378;0.094;2022-11-13T15:20:51;27.38;;;15.45;;
26253;SDS011;53339;51.378;0.094;2022-11-13T15:23:38;28.45;;;12.65;;
26253;SDS011;53339;51.378;0.094;2022-11-13T15:26:24;27.33;;;11.57;;
26253;SDS011;53339;51.378;0.094;2022-11-13T15:29:10;29.23;;;14.60;;
26253;SDS011;53339;51.378;0.094;2022-11-13T15:31:56;31.33;;;15.55;;
26253;SDS011;53339;51.378;0.094;2022-11-13T15:34:42;28.65;;;13.15;;
26253;SDS011;53339;51.378;0.094;2022-11-13T15:37:29;29.48;;;12.23;;
26253;SDS011;53339;51.378;0.094;2022-11-13T15:40:17;28.02;;;15.20;;
26253;SDS011;53339;51.378;0.094;2022-11-13T15:43:04;34.15;;;14.52;;
26253;SDS011;53339;51.378;0.094;2022-11-13T15:45:50;32.63;;;14.40;;
26253;SDS011;53339;51.378;0.094;2022-11-13T15:48:36;35.95;;;17.83;;
26253;SDS011;53339;51.378;0.094;2022-11-13T15:51:36;37.08;;;14.88;;
26253;SDS011;53339;51.378;0.094;2022-11-13T15:54:28;40.45;;;16.85;;
26253;SDS011;53339;51.378;0.094;2022-11-13T15:57:19;45.45;;;15.73;;
26253;SDS011;53339;51.378;0.094;2022-11-13T16:00:13;47.15;;;17.58;;
26253;SDS011;53339;51.378;0.094;2022-11-13T16:03:05;49.60;;;15.52;;
26253;SDS011;53339;51.378;0.094;2022-11-13T16:05:59;58.28;;;15.93;;
26253;SDS011;53339;51.378;0.094;2022-11-13T16:11:32;50.72;;;15.00;;
26253;SDS011;53339;51.378;0.094;2022-11-13T16:14:18;42.83;;;14.80;;
26253;SDS011;53339;51.378;0.094;2022-11-13T16:17:10;51.95;;;15.00;;
26253;SDS011;53339;51.378;0.094;2022-11-13T16:19:58;37.85;;;15.07;;
26253;SDS011;53339;51.378;0.094;2022-11-13T16:22:44;47.78;;;17.40;;
26253;SDS011;53339;51.378;0.094;2022-11-13T16:25:31;47.25;;;17.75;;
26253;SDS011;53339;51.378;0.094;2022-11-13T16:28:17;52.45;;;19.38;;
26253;SDS011;53339;51.378;0.094;2022-11-13T16:31:03;57.67;;;17.45;;
26253;SDS011;53339;51.378;0.094;2022-11-13T16:33:50;43.33;;;16.25;;
26253;SDS011;53339;51.378;0.094;2022-11-13T16:36:36;45.90;;;15.88;;
26253;SDS011;53339;51.378;0.094;2022-11-13T16:39:22;56.45;;;20.40;;
26253;SDS011;53339;51.378;0.094;2022-11-13T16:42:08;88.50;;;20.27;;
26253;SDS011;53339;51.378;0.094;2022-11-13T16:44:54;80.10;;;16.42;;
26253;SDS011;53339;51.378;0.094;2022-11-13T16:47:40;124.28;;;21.17;;
26253;SDS011;53339;51.378;0.094;2022-11-13T16:50:30;92.45;;;23.55;;
26253;SDS011;53339;51.378;0.094;2022-11-13T16:53:17;103.93;;;22.30;;
26253;SDS011;53339;51.378;0.094;2022-11-13T16:56:09;86.57;;;21.17;;
26253;SDS011;53339;51.378;0.094;2022-11-13T16:59:00;57.88;;;19.30;;
26253;SDS011;53339;51.378;0.094;2022-11-13T17:01:46;88.40;;;20.17;;
26253;SDS011;53339;51.378;0.094;2022-11-13T17:04:32;60.17;;;20.98;;
26253;SDS011;53339;51.378;0.094;2022-11-13T17:07:18;64.30;;;17.42;;
26253;SDS011;53339;51.378;0.094;2022-11-13T17:10:05;62.88;;;19.98;;
26253;SDS011;53339;51.378;0.094;2022-11-13T17:13:11;50.80;;;16.30;;
26253;SDS011;53339;51.378;0.094;2022-11-13T17:16:00;55.72;;;19.00;;
26253;SDS011;53339;51.378;0.094;2022-11-13T17:18:47;67.55;;;22.17;;
26253;SDS011;53339;51.378;0.094;2022-11-13T17:21:33;60.05;;;19.20;;
26253;SDS011;53339;51.378;0.094;2022-11-13T17:27:08;73.25;;;15.95;;
26253;SDS011;53339;51.378;0.094;2022-11-13T17:29:54;65.80;;;17.65;;
26253;SDS011;53339;51.378;0.094;2022-11-13T17:32:41;116.43;;;20.95;;
26253;SDS011;53339;51.378;0.094;2022-11-13T17:35:27;59.00;;;18.60;;
26253;SDS011;53339;51.378;0.094;2022-11-13T17:38:12;79.10;;;19.25;;
26253;SDS011;53339;51.378;0.094;2022-11-13T17:41:06;44.35;;;22.73;;
26253;SDS011;53339;51.378;0.094;2022-11-13T17:43:53;56.65;;;18.45;;
26253;SDS011;53339;51.378;0.094;2022-11-13T17:46:45;48.55;;;16.08;;
26253;SDS011;53339;51.378;0.094;2022-11-13T17:49:32;68.47;;;23.52;;
26253;SDS011;53339;51.378;0.094;2022-11-13T17:52:19;54.53;;;17.52;;
26253;SDS011;53339;51.378;0.094;2022-11-13T17:55:05;65.53;;;17.17;;
26253;SDS011;53339;51.378;0.094;2022-11-13T17:57:57;54.72;;;20.65;;
26253;SDS011;53339;51.378;0.094;2022-11-13T18:00:46;58.58;;;17.33;;
26253;SDS011;53339;51.378;0.094;2022-11-13T18:03:33;52.65;;;16.55;;
26253;SDS011;53339;51.378;0.094;2022-11-13T18:06:20;55.05;;;19.38;;
26253;SDS011;53339;51.378;0.094;2022-11-13T18:09:06;78.55;;;20.95;;
26253;SDS011;53339;51.378;0.094;2022-11-13T18:11:52;90.07;;;26.42;;
26253;SDS011;53339;51.378;0.094;2022-11-13T18:14:39;46.65;;;17.00;;
26253;SDS011;53339;51.378;0.094;2022-11-13T18:17:25;68.50;;;19.15;;
26253;SDS011;53339;51.378;0.094;2022-11-13T18:20:11;68.03;;;18.15;;